sensor_id;sensor_type;location;lat;lon;timestamp;pressure;altitude;pressure_sealevel;temperature
14784;BMP180;7483;50.498;12.138;2023-03-23T00:00:59;98983.00;;;32.00
14784;BMP180;7483;50.498;12.138;2023-03-23T00:03:28;99049.00;;;32.00
14784;BMP180;7483;50.498;12.138;2023-03-23T00:05:59;98963.00;;;32.00
14784;BMP180;7483;50.498;12.138;2023-03-23T00:08:31;98965.00;;;32.00
14784;BMP180;7483;50.498;12.138;2023-03-23T00:10:59;98579.00;;;32.10
14784;BMP180;7483;50.498;12.138;2023-03-23T00:13:28;98578.00;;;32.10
14784;BMP180;7483;50.498;12.138;2023-03-23T00:15:56;98584.00;;;32.10
14784;BMP180;7483;50.498;12.138;2023-03-23T00:18:24;98574.00;;;32.10
14784;BMP180;7483;50.498;12.138;2023-03-23T00:20:53;98625.00;;;32.00
14784;BMP180;7483;50.498;12.138;2023-03-23T00:23:24;98936.00;;;32.00
14784;BMP180;7483;50.498;12.138;2023-03-23T00:25:54;98941.00;;;32.00
14784;BMP180;7483;50.498;12.138;2023-03-23T00:28:23;98848.00;;;32.00
14784;BMP180;7483;50.498;12.138;2023-03-23T00:30:56;98972.00;;;32.00
14784;BMP180;7483;50.498;12.138;2023-03-23T00:33:26;98931.00;;;32.00
14784;BMP180;7483;50.498;12.138;2023-03-23T00:35:53;98950.00;;;32.00
14784;BMP180;7483;50.498;12.138;2023-03-23T00:38:24;99076.00;;;32.00
14784;BMP180;7483;50.498;12.138;2023-03-23T00:40:53;98749.00;;;32.10
14784;BMP180;7483;50.498;12.138;2023-03-23T00:43:21;98810.00;;;32.00
14784;BMP180;7483;50.498;12.138;2023-03-23T00:45:50;98760.00;;;32.10
14784;BMP180;7483;50.498;12.138;2023-03-23T00:48:19;98808.00;;;32.00
14784;BMP180;7483;50.498;12.138;2023-03-23T00:50:47;98802.00;;;32.10
14784;BMP180;7483;50.498;12.138;2023-03-23T00:53:15;98873.00;;;32.10
14784;BMP180;7483;50.498;12.138;2023-03-23T00:55:45;98845.00;;;32.10
14784;BMP180;7483;50.498;12.138;2023-03-23T00:58:14;98966.00;;;32.10
14784;BMP180;7483;50.498;12.138;2023-03-23T01:00:42;99041.00;;;32.10
14784;BMP180;7483;50.498;12.138;2023-03-23T01:03:10;99173.00;;;32.10
14784;BMP180;7483;50.498;12.138;2023-03-23T01:05:44;98769.00;;;32.10
14784;BMP180;7483;50.498;12.138;2023-03-23T01:08:14;98485.00;;;32.20
14784;BMP180;7483;50.498;12.138;2023-03-23T01:10:43;98525.00;;;32.20
14784;BMP180;7483;50.498;12.138;2023-03-23T01:13:10;98992.00;;;32.10
14784;BMP180;7483;50.498;12.138;2023-03-23T01:15:38;98674.00;;;32.20
14784;BMP180;7483;50.498;12.138;2023-03-23T01:18:05;98791.00;;;32.20
14784;BMP180;7483;50.498;12.138;2023-03-23T01:20:32;98556.00;;;32.30
14784;BMP180;7483;50.498;12.138;2023-03-23T01:22:59;98541.00;;;32.20
14784;BMP180;7483;50.498;12.138;2023-03-23T01:25:28;98438.00;;;32.20
14784;BMP180;7483;50.498;12.138;2023-03-23T01:27:58;98554.00;;;32.20
14784;BMP180;7483;50.498;12.138;2023-03-23T01:30:25;98627.00;;;32.20
14784;BMP180;7483;50.498;12.138;2023-03-23T01:32:54;98561.00;;;32.20
14784;BMP180;7483;50.498;12.138;2023-03-23T01:35:23;98647.00;;;32.10
14784;BMP180;7483;50.498;12.138;2023-03-23T01:37:51;98298.00;;;32.20
14784;BMP180;7483;50.498;12.138;2023-03-23T01:40:18;98332.00;;;32.20
14784;BMP180;7483;50.498;12.138;2023-03-23T01:42:46;98362.00;;;32.20
14784;BMP180;7483;50.498;12.138;2023-03-23T01:45:29;98363.00;;;32.20
14784;BMP180;7483;50.498;12.138;2023-03-23T01:48:05;98326.00;;;32.20
14784;BMP180;7483;50.498;12.138;2023-03-23T01:50:41;98309.00;;;32.20
14784;BMP180;7483;50.498;12.138;2023-03-23T01:53:11;98385.00;;;32.20
14784;BMP180;7483;50.498;12.138;2023-03-23T01:55:41;98334.00;;;32.20
14784;BMP180;7483;50.498;12.138;2023-03-23T01:58:11;98494.00;;;32.20
14784;BMP180;7483;50.498;12.138;2023-03-23T02:00:40;98580.00;;;32.20
14784;BMP180;7483;50.498;12.138;2023-03-23T02:03:09;98563.00;;;32.20
14784;BMP180;7483;50.498;12.138;2023-03-23T02:05:41;98653.00;;;32.20
14784;BMP180;7483;50.498;12.138;2023-03-23T02:08:14;98624.00;;;32.20
14784;BMP180;7483;50.498;12.138;2023-03-23T02:10:44;98777.00;;;32.20
14784;BMP180;7483;50.498;12.138;2023-03-23T02:13:13;98498.00;;;32.20
14784;BMP180;7483;50.498;12.138;2023-03-23T02:15:50;98528.00;;;32.20
14784;BMP180;7483;50.498;12.138;2023-03-23T02:18:37;98506.00;;;32.10
14784;BMP180;7483;50.498;12.138;2023-03-23T02:21:51;98639.00;;;32.10
14784;BMP180;7483;50.498;12.138;2023-03-23T02:24:46;98610.00;;;32.10
14784;BMP180;7483;50.498;12.138;2023-03-23T02:27:45;98625.00;;;32.00
14784;BMP180;7483;50.498;12.138;2023-03-23T02:30:35;98552.00;;;32.00
14784;BMP180;7483;50.498;12.138;2023-03-23T02:36:23;98677.00;;;31.90
14784;BMP180;7483;50.498;12.138;2023-03-23T02:39:01;98465.00;;;31.90
14784;BMP180;7483;50.498;12.138;2023-03-23T02:41:38;98526.00;;;31.90
14784;BMP180;7483;50.498;12.138;2023-03-23T02:44:08;98456.00;;;31.90
14784;BMP180;7483;50.498;12.138;2023-03-23T02:46:38;98143.00;;;31.90
14784;BMP180;7483;50.498;12.138;2023-03-23T02:49:11;98200.00;;;31.90
14784;BMP180;7483;50.498;12.138;2023-03-23T02:51:40;98224.00;;;31.90
14784;BMP180;7483;50.498;12.138;2023-03-23T02:54:11;98296.00;;;31.90
14784;BMP180;7483;50.498;12.138;2023-03-23T02:56:40;98397.00;;;31.90
14784;BMP180;7483;50.498;12.138;2023-03-23T02:59:16;98398.00;;;31.90
14784;BMP180;7483;50.498;12.138;2023-03-23T03:02:03;98549.00;;;31.90
14784;BMP180;7483;50.498;12.138;2023-03-23T03:04:34;98555.00;;;31.90
14784;BMP180;7483;50.498;12.138;2023-03-23T03:07:35;98491.00;;;31.80
14784;BMP180;7483;50.498;12.138;2023-03-23T03:10:09;98821.00;;;31.80
14784;BMP180;7483;50.498;12.138;2023-03-23T03:12:51;98652.00;;;31.80
14784;BMP180;7483;50.498;12.138;2023-03-23T03:15:29;98497.00;;;31.80
14784;BMP180;7483;50.498;12.138;2023-03-23T03:18:08;98322.00;;;31.80
14784;BMP180;7483;50.498;12.138;2023-03-23T03:20:44;98274.00;;;31.90
14784;BMP180;7483;50.498;12.138;2023-03-23T03:23:14;98304.00;;;31.80
14784;BMP180;7483;50.498;12.138;2023-03-23T03:25:46;98332.00;;;31.80
14784;BMP180;7483;50.498;12.138;2023-03-23T03:28:20;98354.00;;;31.80
14784;BMP180;7483;50.498;12.138;2023-03-23T03:30:54;98395.00;;;31.80
14784;BMP180;7483;50.498;12.138;2023-03-23T03:33:24;98372.00;;;31.80
14784;BMP180;7483;50.498;12.138;2023-03-23T03:35:57;98358.00;;;31.80
14784;BMP180;7483;50.498;12.138;2023-03-23T03:38:25;98432.00;;;31.80
14784;BMP180;7483;50.498;12.138;2023-03-23T03:40:56;98393.00;;;31.80
14784;BMP180;7483;50.498;12.138;2023-03-23T03:43:23;98556.00;;;31.70
14784;BMP180;7483;50.498;12.138;2023-03-23T03:45:50;98243.00;;;31.80
14784;BMP180;7483;50.498;12.138;2023-03-23T03:48:17;98190.00;;;31.80
14784;BMP180;7483;50.498;12.138;2023-03-23T03:50:44;98172.00;;;31.80
14784;BMP180;7483;50.498;12.138;2023-03-23T03:53:13;98205.00;;;31.80
14784;BMP180;7483;50.498;12.138;2023-03-23T03:55:41;98245.00;;;31.80
14784;BMP180;7483;50.498;12.138;2023-03-23T03:58:14;98194.00;;;31.80
14784;BMP180;7483;50.498;12.138;2023-03-23T04:01:08;98224.00;;;31.80
14784;BMP180;7483;50.498;12.138;2023-03-23T04:03:38;98200.00;;;31.80
14784;BMP180;7483;50.498;12.138;2023-03-23T04:06:14;98237.00;;;31.80
14784;BMP180;7483;50.498;12.138;2023-03-23T04:08:43;98224.00;;;31.80
14784;BMP180;7483;50.498;12.138;2023-03-23T04:11:13;98224.00;;;31.80
14784;BMP180;7483;50.498;12.138;2023-03-23T04:13:41;98195.00;;;31.80
14784;BMP180;7483;50.498;12.138;2023-03-23T04:16:18;98197.00;;;31.80
14784;BMP180;7483;50.498;12.138;2023-03-23T04:18:47;98189.00;;;31.80
14784;BMP180;7483;50.498;12.138;2023-03-23T04:21:16;98231.00;;;31.80
14784;BMP180;7483;50.498;12.138;2023-03-23T04:23:47;98319.00;;;31.80
14784;BMP180;7483;50.498;12.138;2023-03-23T04:26:14;98336.00;;;31.80
14784;BMP180;7483;50.498;12.138;2023-03-23T04:28:46;98461.00;;;31.70
14784;BMP180;7483;50.498;12.138;2023-03-23T04:31:31;98592.00;;;31.70
14784;BMP180;7483;50.498;12.138;2023-03-23T04:34:15;98326.00;;;31.80
14784;BMP180;7483;50.498;12.138;2023-03-23T04:36:46;98305.00;;;31.80
14784;BMP180;7483;50.498;12.138;2023-03-23T04:39:23;98123.00;;;31.80
14784;BMP180;7483;50.498;12.138;2023-03-23T04:41:51;98111.00;;;31.80
14784;BMP180;7483;50.498;12.138;2023-03-23T04:44:26;98074.00;;;31.80
14784;BMP180;7483;50.498;12.138;2023-03-23T04:47:01;98097.00;;;31.80
14784;BMP180;7483;50.498;12.138;2023-03-23T04:49:32;98117.00;;;31.80
14784;BMP180;7483;50.498;12.138;2023-03-23T04:52:11;98079.00;;;31.80
14784;BMP180;7483;50.498;12.138;2023-03-23T04:54:44;98132.00;;;31.80
14784;BMP180;7483;50.498;12.138;2023-03-23T04:57:12;98148.00;;;31.90
14784;BMP180;7483;50.498;12.138;2023-03-23T04:59:45;98152.00;;;31.90
14784;BMP180;7483;50.498;12.138;2023-03-23T05:02:19;98191.00;;;31.90
14784;BMP180;7483;50.498;12.138;2023-03-23T05:04:48;98210.00;;;31.80
14784;BMP180;7483;50.498;12.138;2023-03-23T05:07:19;98432.00;;;31.80
14784;BMP180;7483;50.498;12.138;2023-03-23T05:09:50;98217.00;;;31.80
14784;BMP180;7483;50.498;12.138;2023-03-23T05:12:21;98260.00;;;31.90
14784;BMP180;7483;50.498;12.138;2023-03-23T05:14:59;98244.00;;;31.90
14784;BMP180;7483;50.498;12.138;2023-03-23T05:17:28;98266.00;;;31.90
14784;BMP180;7483;50.498;12.138;2023-03-23T05:19:58;98293.00;;;31.90
14784;BMP180;7483;50.498;12.138;2023-03-23T05:22:57;98322.00;;;31.90
14784;BMP180;7483;50.498;12.138;2023-03-23T05:25:31;98329.00;;;31.90
14784;BMP180;7483;50.498;12.138;2023-03-23T05:28:06;98303.00;;;31.90
14784;BMP180;7483;50.498;12.138;2023-03-23T05:31:06;98433.00;;;31.90
14784;BMP180;7483;50.498;12.138;2023-03-23T05:33:33;98246.00;;;31.90
14784;BMP180;7483;50.498;12.138;2023-03-23T05:36:08;98203.00;;;31.90
14784;BMP180;7483;50.498;12.138;2023-03-23T05:38:56;98225.00;;;31.90
14784;BMP180;7483;50.498;12.138;2023-03-23T05:41:31;98312.00;;;31.90
14784;BMP180;7483;50.498;12.138;2023-03-23T05:44:00;98327.00;;;31.90
14784;BMP180;7483;50.498;12.138;2023-03-23T05:46:37;98365.00;;;31.90
14784;BMP180;7483;50.498;12.138;2023-03-23T05:49:05;98383.00;;;31.90
14784;BMP180;7483;50.498;12.138;2023-03-23T05:51:37;98333.00;;;31.90
14784;BMP180;7483;50.498;12.138;2023-03-23T05:54:05;98227.00;;;32.00
14784;BMP180;7483;50.498;12.138;2023-03-23T05:56:35;98242.00;;;32.00
14784;BMP180;7483;50.498;12.138;2023-03-23T05:59:15;98371.00;;;32.00
14784;BMP180;7483;50.498;12.138;2023-03-23T06:01:45;98548.00;;;31.90
14784;BMP180;7483;50.498;12.138;2023-03-23T06:04:12;98055.00;;;32.10
14784;BMP180;7483;50.498;12.138;2023-03-23T06:06:51;98064.00;;;32.10
14784;BMP180;7483;50.498;12.138;2023-03-23T06:09:18;98133.00;;;32.10
14784;BMP180;7483;50.498;12.138;2023-03-23T06:12:07;98092.00;;;32.20
14784;BMP180;7483;50.498;12.138;2023-03-23T06:14:48;98089.00;;;32.10
14784;BMP180;7483;50.498;12.138;2023-03-23T06:17:21;98138.00;;;32.10
14784;BMP180;7483;50.498;12.138;2023-03-23T06:19:51;98136.00;;;32.10
14784;BMP180;7483;50.498;12.138;2023-03-23T06:22:20;98159.00;;;32.10
14784;BMP180;7483;50.498;12.138;2023-03-23T06:25:07;98169.00;;;32.10
14784;BMP180;7483;50.498;12.138;2023-03-23T06:27:40;98144.00;;;32.20
14784;BMP180;7483;50.498;12.138;2023-03-23T06:30:09;98193.00;;;32.20
14784;BMP180;7483;50.498;12.138;2023-03-23T06:32:38;98201.00;;;32.20
14784;BMP180;7483;50.498;12.138;2023-03-23T06:35:10;98215.00;;;32.10
14784;BMP180;7483;50.498;12.138;2023-03-23T06:38:00;98188.00;;;32.20
14784;BMP180;7483;50.498;12.138;2023-03-23T06:40:47;98232.00;;;32.20
14784;BMP180;7483;50.498;12.138;2023-03-23T06:43:16;98180.00;;;32.20
14784;BMP180;7483;50.498;12.138;2023-03-23T06:45:58;98194.00;;;32.20
14784;BMP180;7483;50.498;12.138;2023-03-23T06:48:40;98221.00;;;32.10
14784;BMP180;7483;50.498;12.138;2023-03-23T06:51:10;98258.00;;;32.10
14784;BMP180;7483;50.498;12.138;2023-03-23T06:53:39;98244.00;;;32.10
